createdAt,value
2018-03-31T00:02:08.918Z,77.66
2018-03-31T00:05:11.042Z,77.71
2018-03-31T00:08:13.151Z,77.97
2018-03-31T00:11:15.270Z,77.33
2018-03-31T00:14:17.390Z,77.85
2018-03-31T00:17:19.509Z,77.95
2018-03-31T00:20:21.608Z,78.00
2018-03-31T00:23:23.709Z,77.83
2018-03-31T00:26:26.187Z,78.11
2018-03-31T00:29:28.288Z,78.32
2018-03-31T00:32:30.397Z,78.11
2018-03-31T00:35:32.489Z,77.94
2018-03-31T00:38:34.596Z,78.15
2018-03-31T00:41:36.768Z,78.11
2018-03-31T00:44:38.866Z,78.51
2018-03-31T00:47:40.961Z,78.25
2018-03-31T00:50:43.078Z,78.39
2018-03-31T00:53:45.214Z,78.71
2018-03-31T00:56:47.321Z,78.97
2018-03-31T00:59:49.497Z,78.83
2018-03-31T01:02:51.605Z,78.40
2018-03-31T01:05:53.718Z,77.67
2018-03-31T01:08:55.825Z,78.30
2018-03-31T01:11:57.926Z,78.22
2018-03-31T01:15:00.047Z,78.17
2018-03-31T01:18:02.198Z,77.59
2018-03-31T01:21:04.334Z,77.64
2018-03-31T01:24:06.421Z,78.20
2018-03-31T01:27:08.547Z,77.55
2018-03-31T01:30:10.661Z,78.04
2018-03-31T01:33:12.765Z,77.83
2018-03-31T01:36:14.902Z,78.02
2018-03-31T01:39:16.997Z,78.35
2018-03-31T01:42:19.115Z,78.49
2018-03-31T01:45:21.197Z,78.53
2018-03-31T01:48:23.293Z,78.38
2018-03-31T01:51:25.396Z,77.77
2018-03-31T01:54:27.494Z,78.36
2018-03-31T01:57:29.626Z,78.46
2018-03-31T02:00:31.827Z,78.34
2018-03-31T02:03:33.955Z,78.37
2018-03-31T02:06:36.049Z,78.45
2018-03-31T02:09:38.253Z,78.52
2018-03-31T02:12:40.374Z,78.85
2018-03-31T02:15:42.552Z,78.94
2018-03-31T02:18:44.658Z,79.01
2018-03-31T02:21:46.793Z,78.71
2018-03-31T02:24:48.901Z,78.57
2018-03-31T02:27:51.000Z,78.91
2018-03-31T02:30:53.146Z,78.87
2018-03-31T02:33:55.281Z,78.98
2018-03-31T02:36:57.406Z,78.48
2018-03-31T02:39:59.905Z,78.67
2018-03-31T02:43:02.026Z,78.50
2018-03-31T02:46:04.141Z,78.78
2018-03-31T02:49:06.262Z,78.61
2018-03-31T02:52:08.406Z,78.49
2018-03-31T02:55:10.525Z,78.29
2018-03-31T02:58:12.643Z,78.29
2018-03-31T03:01:14.771Z,78.70
2018-03-31T03:04:16.894Z,78.73
2018-03-31T03:07:19.007Z,78.74
2018-03-31T03:10:21.123Z,78.85
2018-03-31T03:13:23.226Z,78.75
2018-03-31T03:16:25.353Z,78.98
2018-03-31T03:19:27.515Z,78.65
2018-03-31T03:22:29.628Z,78.34
2018-03-31T03:25:31.724Z,78.81
2018-03-31T03:28:33.842Z,78.35
2018-03-31T03:31:35.954Z,78.60
2018-03-31T03:34:38.089Z,78.93
2018-03-31T03:37:40.229Z,79.11
2018-03-31T03:40:42.431Z,79.03
2018-03-31T03:43:44.566Z,78.84
2018-03-31T03:46:46.711Z,78.76
2018-03-31T03:49:48.837Z,78.57
2018-03-31T03:52:51.090Z,78.71
2018-03-31T03:55:53.287Z,78.52
2018-03-31T03:58:55.392Z,78.53
2018-03-31T04:01:57.530Z,78.86
2018-03-31T04:04:59.665Z,78.90
2018-03-31T04:08:02.084Z,78.60
2018-03-31T04:11:04.214Z,78.97
2018-03-31T04:14:06.343Z,78.92
2018-03-31T04:17:08.484Z,79.04
2018-03-31T04:20:10.681Z,79.44
2018-03-31T04:23:12.814Z,79.93
2018-03-31T04:26:15.012Z,80.27
2018-03-31T04:29:17.152Z,80.27
2018-03-31T04:32:19.270Z,80.29
2018-03-31T04:35:21.366Z,79.92
2018-03-31T04:38:23.493Z,80.05
2018-03-31T04:41:25.605Z,80.02
2018-03-31T04:44:27.737Z,79.96
2018-03-31T04:47:29.883Z,80.13
2018-03-31T04:50:32.003Z,80.68
2018-03-31T04:53:34.414Z,80.30
2018-03-31T04:56:36.600Z,80.22
2018-03-31T04:59:38.744Z,80.58
2018-03-31T05:02:40.869Z,80.39
2018-03-31T05:05:43.032Z,80.99
2018-03-31T05:08:45.153Z,81.04
2018-03-31T05:11:47.289Z,80.77
2018-03-31T05:14:49.439Z,80.38
2018-03-31T05:17:51.539Z,79.84
2018-03-31T05:20:53.662Z,79.90
2018-03-31T05:23:55.778Z,80.19
2018-03-31T05:26:57.893Z,80.28
2018-03-31T05:30:00.015Z,80.16
2018-03-31T05:33:02.132Z,80.42
2018-03-31T05:36:04.241Z,80.09
2018-03-31T05:39:11.878Z,80.73
2018-03-31T05:42:14.011Z,81.26
2018-03-31T05:45:16.122Z,81.23
2018-03-31T05:48:18.234Z,81.08
2018-03-31T05:51:20.357Z,80.26
2018-03-31T05:54:22.479Z,81.01
2018-03-31T05:57:24.573Z,81.13
2018-03-31T06:00:26.678Z,81.60
2018-03-31T06:03:28.824Z,81.73
2018-03-31T06:06:30.912Z,81.49
2018-03-31T06:09:33.030Z,80.82
2018-03-31T06:12:35.172Z,81.39
2018-03-31T06:15:37.314Z,81.26
2018-03-31T06:18:39.421Z,81.31
2018-03-31T06:21:41.533Z,81.04
2018-03-31T06:24:43.634Z,80.60
2018-03-31T06:27:45.742Z,79.93
2018-03-31T06:30:47.933Z,79.94
2018-03-31T06:33:50.042Z,79.65
2018-03-31T06:36:52.142Z,79.53
2018-03-31T06:39:54.589Z,79.32
2018-03-31T06:42:56.718Z,79.26
2018-03-31T06:45:58.821Z,78.50
2018-03-31T06:49:00.945Z,78.79
2018-03-31T06:52:03.053Z,78.39
2018-03-31T06:55:05.177Z,78.60
2018-03-31T06:58:07.299Z,77.53
2018-03-31T07:01:09.778Z,77.30
2018-03-31T07:04:11.901Z,76.81
2018-03-31T07:07:14.049Z,76.77
2018-03-31T07:10:17.014Z,75.97
2018-03-31T07:13:19.126Z,75.64
2018-03-31T07:16:21.292Z,75.28
2018-03-31T07:19:23.397Z,75.24
2018-03-31T07:22:25.517Z,74.63
2018-03-31T07:25:28.703Z,73.86
2018-03-31T07:28:30.829Z,72.95
2018-03-31T07:31:32.946Z,71.53
2018-03-31T07:34:35.053Z,71.39
2018-03-31T07:37:37.164Z,72.60
2018-03-31T07:40:39.324Z,72.81
2018-03-31T07:43:41.365Z,71.90
2018-03-31T07:46:43.551Z,70.51
2018-03-31T07:49:45.687Z,69.83
2018-03-31T07:52:47.810Z,68.79
2018-03-31T07:55:50.189Z,68.42
2018-03-31T07:58:52.309Z,67.83
2018-03-31T08:01:54.458Z,67.76
2018-03-31T08:04:56.559Z,68.39
2018-03-31T08:07:58.675Z,67.98
2018-03-31T08:11:01.016Z,66.45
2018-03-31T08:14:03.133Z,66.49
2018-03-31T08:17:06.290Z,65.06
2018-03-31T08:20:08.541Z,63.83
2018-03-31T08:23:10.655Z,63.98
2018-03-31T08:26:12.998Z,63.45
2018-03-31T08:29:15.132Z,60.84
2018-03-31T08:32:17.264Z,60.15
2018-03-31T08:35:19.948Z,62.39
2018-03-31T08:38:22.260Z,62.86
2018-03-31T08:41:24.408Z,62.53
2018-03-31T08:44:27.264Z,61.87
2018-03-31T08:47:29.404Z,61.01
2018-03-31T08:50:31.508Z,60.63
2018-03-31T08:53:33.696Z,60.42
2018-03-31T08:56:35.796Z,60.08
2018-03-31T08:59:38.125Z,60.98
2018-03-31T09:02:40.986Z,61.34
2018-03-31T09:05:43.131Z,59.41
2018-03-31T09:08:45.243Z,57.60
2018-03-31T09:11:47.370Z,59.04
2018-03-31T09:14:49.482Z,58.75
2018-03-31T09:17:51.587Z,57.28
2018-03-31T09:20:53.735Z,56.64
2018-03-31T09:23:55.870Z,57.97
2018-03-31T09:26:57.970Z,58.11
2018-03-31T09:30:00.095Z,56.17
2018-03-31T09:33:02.270Z,54.11
2018-03-31T09:36:04.356Z,58.22
2018-03-31T09:39:06.705Z,59.35
2018-03-31T09:42:09.033Z,57.17
2018-03-31T09:45:11.150Z,54.67
2018-03-31T09:48:13.374Z,55.67
2018-03-31T09:51:16.547Z,55.97
2018-03-31T09:54:18.747Z,56.55
2018-03-31T09:57:20.867Z,55.55
2018-03-31T10:00:27.177Z,55.34
2018-03-31T10:03:29.293Z,54.48
2018-03-31T10:06:31.439Z,56.15
2018-03-31T10:09:33.541Z,55.37
2018-03-31T10:12:35.678Z,54.30
2018-03-31T10:15:38.016Z,54.32
2018-03-31T10:18:40.214Z,53.46
2018-03-31T10:21:42.434Z,53.11
2018-03-31T10:24:44.732Z,50.92
2018-03-31T10:27:46.846Z,51.48
2018-03-31T10:30:48.990Z,50.33
2018-03-31T10:33:51.103Z,50.13
2018-03-31T10:36:53.306Z,49.45
2018-03-31T10:39:55.458Z,48.95
2018-03-31T10:42:57.591Z,48.18
2018-03-31T10:45:59.690Z,47.32
2018-03-31T10:49:01.853Z,46.73
2018-03-31T10:52:03.993Z,46.65
2018-03-31T10:55:06.154Z,46.15
2018-03-31T10:58:08.304Z,44.85
2018-03-31T11:01:10.430Z,45.22
2018-03-31T11:04:12.541Z,45.88
2018-03-31T11:07:14.684Z,46.48
2018-03-31T11:10:16.811Z,46.09
2018-03-31T11:13:18.922Z,45.85
2018-03-31T11:16:21.059Z,45.55
2018-03-31T11:19:23.187Z,44.80
2018-03-31T11:22:25.315Z,44.48
2018-03-31T11:25:27.421Z,45.04
2018-03-31T11:28:29.533Z,44.79
2018-03-31T11:31:31.641Z,44.62
2018-03-31T11:34:33.786Z,44.30
2018-03-31T11:37:35.917Z,44.48
2018-03-31T11:40:38.135Z,44.09
2018-03-31T11:43:40.382Z,43.44
2018-03-31T11:46:42.571Z,44.19
2018-03-31T11:49:44.763Z,43.38
2018-03-31T11:52:46.879Z,43.76
2018-03-31T11:55:48.984Z,41.33
2018-03-31T11:58:51.357Z,42.52
2018-03-31T12:01:53.482Z,42.71
2018-03-31T12:04:55.595Z,42.20
2018-03-31T12:07:57.762Z,42.17
2018-03-31T12:10:59.850Z,40.12
2018-03-31T12:14:02.000Z,40.37
2018-03-31T12:17:04.124Z,39.47
2018-03-31T12:23:08.266Z,38.48
2018-03-31T12:26:10.435Z,37.21
2018-03-31T12:29:12.592Z,37.99
2018-03-31T12:32:14.715Z,37.36
2018-03-31T12:35:16.866Z,36.40
2018-03-31T12:38:18.975Z,36.63
2018-03-31T12:41:21.110Z,37.51
2018-03-31T12:44:23.241Z,36.24
2018-03-31T12:47:25.345Z,35.96
2018-03-31T12:50:27.465Z,36.11
2018-03-31T12:53:29.581Z,36.82
2018-03-31T12:56:31.680Z,36.89
2018-03-31T12:59:33.794Z,36.06
2018-03-31T13:02:35.913Z,35.13
2018-03-31T13:05:38.201Z,36.05
2018-03-31T13:08:40.310Z,34.17
2018-03-31T13:11:42.422Z,33.90
2018-03-31T13:14:44.522Z,33.04
2018-03-31T13:17:46.628Z,32.91
2018-03-31T13:20:48.794Z,33.03
2018-03-31T13:23:50.856Z,32.32
2018-03-31T13:26:52.963Z,31.68
2018-03-31T13:29:55.065Z,31.85
2018-03-31T13:32:57.165Z,31.88
2018-03-31T13:35:59.339Z,31.66
2018-03-31T13:39:01.459Z,31.32
2018-03-31T13:42:03.573Z,29.79
2018-03-31T13:45:05.757Z,30.63
2018-03-31T13:48:07.972Z,30.94
2018-03-31T13:51:10.155Z,30.60
2018-03-31T13:54:12.266Z,30.35
2018-03-31T13:57:14.597Z,30.46
2018-03-31T14:00:16.812Z,31.03
2018-03-31T14:03:18.936Z,29.87
2018-03-31T14:06:21.053Z,29.17
2018-03-31T14:09:23.359Z,29.34
2018-03-31T14:12:25.461Z,29.23
2018-03-31T14:15:27.582Z,29.95
2018-03-31T14:18:29.681Z,30.15
2018-03-31T14:21:31.811Z,30.88
2018-03-31T14:24:33.914Z,31.16
2018-03-31T14:27:36.018Z,31.98
2018-03-31T14:30:38.152Z,31.91
2018-03-31T14:33:40.254Z,32.88
2018-03-31T14:36:42.440Z,32.93
2018-03-31T14:39:44.564Z,33.06
2018-03-31T14:42:46.657Z,33.00
2018-03-31T14:45:48.760Z,32.52
2018-03-31T14:48:50.878Z,31.80
2018-03-31T14:51:52.983Z,31.09
2018-03-31T14:54:55.088Z,30.54
2018-03-31T14:57:57.226Z,30.83
2018-03-31T15:00:59.346Z,30.57
2018-03-31T15:04:01.466Z,31.33
2018-03-31T15:07:03.594Z,31.36
2018-03-31T15:10:05.689Z,31.93
2018-03-31T15:13:07.816Z,31.09
2018-03-31T15:16:09.941Z,31.66
2018-03-31T15:19:12.149Z,31.59
2018-03-31T15:22:14.286Z,31.87
2018-03-31T15:25:16.449Z,31.74
2018-03-31T15:28:18.569Z,32.09
2018-03-31T15:31:20.689Z,33.22
2018-03-31T15:34:22.824Z,31.98
2018-03-31T15:37:25.104Z,32.79
2018-03-31T15:40:27.213Z,32.35
2018-03-31T15:43:29.339Z,32.58
2018-03-31T15:46:31.471Z,32.90
2018-03-31T15:49:33.575Z,32.87
2018-03-31T15:52:35.700Z,32.67
2018-03-31T15:55:37.834Z,33.09
2018-03-31T15:58:39.940Z,33.05
2018-03-31T16:01:42.094Z,33.84
2018-03-31T16:04:44.142Z,34.37
2018-03-31T16:07:46.262Z,34.56
2018-03-31T16:10:48.373Z,34.78
2018-03-31T16:13:50.481Z,34.96
2018-03-31T16:16:52.586Z,34.73
2018-03-31T16:19:54.679Z,34.06
2018-03-31T16:22:56.817Z,34.56
2018-03-31T16:25:58.925Z,35.07
2018-03-31T16:29:01.085Z,34.62
2018-03-31T16:32:03.230Z,34.31
2018-03-31T16:35:05.387Z,34.15
2018-03-31T16:38:07.896Z,34.72
2018-03-31T16:41:10.022Z,34.59
2018-03-31T16:44:12.184Z,35.41
2018-03-31T16:47:14.303Z,34.40
2018-03-31T16:50:16.450Z,35.34
2018-03-31T16:53:18.617Z,34.75
2018-03-31T16:56:20.729Z,36.53
2018-03-31T16:59:22.865Z,36.65
2018-03-31T17:02:25.010Z,35.99
2018-03-31T17:05:27.143Z,36.41
2018-03-31T17:08:29.274Z,36.07
2018-03-31T17:11:31.443Z,35.92
2018-03-31T17:14:33.558Z,36.47
2018-03-31T17:17:35.772Z,36.51
2018-03-31T17:20:37.879Z,37.71
2018-03-31T17:23:40.050Z,37.88
2018-03-31T17:26:42.159Z,38.81
2018-03-31T17:29:44.306Z,38.25
2018-03-31T17:32:46.437Z,38.44
2018-03-31T17:35:48.572Z,38.47
2018-03-31T17:38:50.711Z,38.95
2018-03-31T17:41:52.880Z,38.55
2018-03-31T17:44:55.016Z,39.27
2018-03-31T17:47:57.221Z,39.32
2018-03-31T17:50:59.326Z,40.41
2018-03-31T17:54:01.426Z,41.05
2018-03-31T17:57:03.533Z,42.08
2018-03-31T18:00:05.765Z,42.33
2018-03-31T18:03:07.870Z,42.29
2018-03-31T18:06:10.061Z,42.30
2018-03-31T18:09:12.162Z,42.73
2018-03-31T18:12:14.265Z,43.21
2018-03-31T18:15:16.400Z,43.26
2018-03-31T18:18:18.522Z,43.66
2018-03-31T18:21:20.638Z,43.68
2018-03-31T18:24:22.758Z,43.81
2018-03-31T18:27:24.974Z,44.37
2018-03-31T18:30:27.092Z,44.41
2018-03-31T18:33:29.246Z,44.76
2018-03-31T18:36:31.381Z,44.88
2018-03-31T18:39:33.485Z,45.08
2018-03-31T18:42:36.876Z,45.40
2018-03-31T18:45:38.978Z,46.01
2018-03-31T18:48:41.100Z,46.27
2018-03-31T18:51:43.266Z,46.56
2018-03-31T18:54:45.388Z,47.48
2018-03-31T18:57:47.480Z,47.61
2018-03-31T19:00:49.598Z,47.53
2018-03-31T19:03:51.902Z,48.49
2018-03-31T19:06:54.114Z,48.04
2018-03-31T19:09:56.248Z,47.92
2018-03-31T19:12:58.366Z,48.48
2018-03-31T19:16:00.497Z,48.67
2018-03-31T19:19:02.655Z,48.77
2018-03-31T19:22:04.825Z,48.69
2018-03-31T19:25:11.078Z,49.28
2018-03-31T19:28:13.191Z,49.15
2018-03-31T19:31:15.326Z,49.10
2018-03-31T19:34:17.568Z,50.21
2018-03-31T19:37:19.658Z,49.95
2018-03-31T19:40:22.358Z,49.90
2018-03-31T19:43:24.501Z,49.96
2018-03-31T19:46:26.653Z,50.19
2018-03-31T19:49:28.820Z,50.41
2018-03-31T19:52:30.922Z,50.58
2018-03-31T19:55:33.033Z,50.48
2018-03-31T19:58:35.178Z,50.34
2018-03-31T20:01:37.301Z,50.98
2018-03-31T20:04:39.409Z,50.92
2018-03-31T20:07:41.581Z,51.31
2018-03-31T20:10:43.686Z,51.44
2018-03-31T20:13:45.821Z,51.52
2018-03-31T20:16:47.960Z,50.89
2018-03-31T20:19:50.063Z,51.05
2018-03-31T20:22:52.217Z,51.81
2018-03-31T20:25:54.367Z,50.76
2018-03-31T20:28:56.485Z,50.88
2018-03-31T20:31:58.723Z,51.89
2018-03-31T20:35:00.854Z,53.33
2018-03-31T20:38:03.014Z,54.06
2018-03-31T20:41:05.134Z,54.43
2018-03-31T20:44:07.306Z,54.12
2018-03-31T20:47:09.427Z,54.84
2018-03-31T20:50:11.538Z,54.32
2018-03-31T20:53:13.659Z,54.24
2018-03-31T20:56:15.824Z,54.67
2018-03-31T20:59:17.943Z,54.49
2018-03-31T21:02:20.059Z,54.52
2018-03-31T21:05:22.290Z,54.93
2018-03-31T21:08:24.394Z,55.07
2018-03-31T21:11:26.554Z,55.10
2018-03-31T21:14:28.657Z,55.82
2018-03-31T21:17:30.778Z,56.17
2018-03-31T21:20:32.877Z,56.67
2018-03-31T21:23:34.990Z,57.67
2018-03-31T21:26:37.126Z,57.10
2018-03-31T21:29:39.257Z,58.03
2018-03-31T21:32:41.419Z,57.97
2018-03-31T21:35:42.874Z,56.93
2018-03-31T21:38:44.971Z,58.00
2018-03-31T21:41:47.093Z,58.13
2018-03-31T21:44:49.241Z,58.49
2018-03-31T21:47:51.426Z,58.76
2018-03-31T21:50:53.551Z,58.31
2018-03-31T21:53:55.666Z,59.45
2018-03-31T21:56:57.796Z,59.46
2018-03-31T21:59:59.942Z,59.65
2018-03-31T22:03:02.063Z,59.24
2018-03-31T22:06:04.176Z,59.38
2018-03-31T22:09:06.300Z,59.35
2018-03-31T22:12:08.421Z,59.84
2018-03-31T22:16:17.849Z,59.39
2018-03-31T22:19:19.979Z,57.58
2018-03-31T22:22:22.849Z,57.91
2018-03-31T22:25:24.348Z,57.82
2018-03-31T22:28:26.433Z,56.52
2018-03-31T22:31:28.574Z,56.96
2018-03-31T22:34:30.694Z,56.85
2018-03-31T22:37:32.846Z,58.06
2018-03-31T22:40:34.983Z,58.21
2018-03-31T22:43:37.118Z,58.00
2018-03-31T22:46:39.205Z,58.51
2018-03-31T22:49:41.318Z,56.72
2018-03-31T22:52:43.412Z,57.10
2018-03-31T22:55:45.517Z,57.29
2018-03-31T22:58:47.659Z,56.86
2018-03-31T23:01:49.784Z,56.96
2018-03-31T23:04:51.892Z,56.65
2018-03-31T23:07:54.033Z,57.21
2018-03-31T23:10:56.159Z,56.80
2018-03-31T23:13:58.257Z,57.58
2018-03-31T23:17:00.368Z,57.33
2018-03-31T23:20:02.509Z,57.04
2018-03-31T23:23:04.607Z,57.20
2018-03-31T23:26:06.752Z,57.88
2018-03-31T23:29:08.863Z,57.94
2018-03-31T23:32:10.964Z,58.08
2018-03-31T23:35:13.108Z,57.05
2018-03-31T23:38:15.210Z,57.55
2018-03-31T23:41:17.334Z,57.70
2018-03-31T23:44:19.437Z,58.17
2018-03-31T23:47:21.561Z,58.54
2018-03-31T23:50:23.695Z,58.65
2018-03-31T23:53:25.801Z,58.03
2018-03-31T23:56:27.948Z,58.49
2018-03-31T23:59:30.091Z,58.23
